Time;durP1;ratioP1;P1;durP2;ratioP2;P2;SDS_P1;SDS_P2;PMS_P1;PMS_P2;Temp;Humidity;BMP_temperature;BMP_pressure;BME280_temperature;BME280_humidity;BME280_pressure;Samples;Min_cycle;Max_cycle;Signal;HPM_P1;HPM_P2
2023/04/03 00:00:49;;;;;;;4.43;0.97;;;1.60;99.90;;;;;;4875639;29;20085;-72
2023/04/03 00:03:18;;;;;;;2.72;0.73;;;1.70;99.90;;;;;;4866302;29;20119;-72
2023/04/03 00:05:44;;;;;;;2.90;0.80;;;1.70;99.90;;;;;;4877424;29;20045;-72
2023/04/03 00:08:10;;;;;;;2.30;0.50;;;1.60;99.90;;;;;;4879947;29;20072;-72
2023/04/03 00:10:36;;;;;;;3.40;0.60;;;1.70;99.90;;;;;;4874253;29;20127;-72
2023/04/03 00:13:03;;;;;;;4.28;0.55;;;1.70;99.90;;;;;;4863709;29;20071;-71
2023/04/03 00:15:29;;;;;;;2.20;0.63;;;1.70;99.90;;;;;;4863994;29;20056;-72
2023/04/03 00:17:55;;;;;;;1.90;0.50;;;1.60;99.90;;;;;;4879977;29;20036;-72
2023/04/03 00:20:21;;;;;;;2.57;0.60;;;1.60;99.90;;;;;;4875862;29;20112;-72
2023/04/03 00:22:46;;;;;;;1.90;0.70;;;1.60;99.90;;;;;;4858658;29;20046;-71
2023/04/03 00:25:12;;;;;;;2.60;0.60;;;1.60;99.90;;;;;;4879448;29;20073;-72
2023/04/03 00:27:39;;;;;;;2.00;0.47;;;1.60;99.90;;;;;;4879286;29;20112;-72
2023/04/03 00:30:06;;;;;;;2.03;0.40;;;1.60;99.90;;;;;;4860506;29;20063;-71
2023/04/03 00:32:32;;;;;;;3.55;0.63;;;1.50;99.90;;;;;;4863183;29;20040;-71
2023/04/03 00:34:58;;;;;;;2.90;0.83;;;1.50;99.90;;;;;;4862930;29;20040;-71
2023/04/03 00:37:24;;;;;;;2.80;0.70;;;1.50;99.90;;;;;;4878927;29;20505;-71
2023/04/03 00:39:50;;;;;;;1.70;0.38;;;1.40;99.90;;;;;;4863451;29;20189;-71
2023/04/03 00:42:16;;;;;;;6.77;0.77;;;1.50;99.90;;;;;;4875264;29;20135;-71
2023/04/03 00:44:41;;;;;;;2.47;0.50;;;1.40;99.90;;;;;;4863154;29;20055;-71
2023/04/03 00:47:11;;;;;;;3.73;0.50;;;1.40;99.90;;;;;;4876664;29;20131;-71
2023/04/03 00:49:38;;;;;;;1.13;0.35;;;1.40;99.90;;;;;;4878661;29;20128;-72
2023/04/03 00:52:09;;;;;;;2.35;0.50;;;1.40;99.90;;;;;;4879176;29;20148;-72
2023/04/03 00:54:37;;;;;;;2.17;0.40;;;1.30;99.90;;;;;;4855932;29;20044;-71
2023/04/03 00:57:04;;;;;;;3.10;0.30;;;1.30;99.90;;;;;;4878044;29;20385;-71
2023/04/03 00:59:36;;;;;;;2.70;0.32;;;1.30;99.90;;;;;;4863063;29;20065;-72
2023/04/03 01:02:02;;;;;;;1.80;0.30;;;1.30;99.90;;;;;;4878988;29;20624;-72
2023/04/03 01:04:31;;;;;;;3.20;0.30;;;1.30;99.90;;;;;;4878397;29;20048;-71
2023/04/03 01:07:01;;;;;;;2.50;0.52;;;1.30;99.90;;;;;;4877154;29;20785;-71
2023/04/03 01:09:28;;;;;;;4.32;0.60;;;1.30;99.90;;;;;;4879039;29;20401;-72
2023/04/03 01:11:54;;;;;;;1.67;0.40;;;1.30;99.90;;;;;;4861061;29;20083;-72
2023/04/03 01:14:20;;;;;;;2.57;0.70;;;1.20;99.90;;;;;;4861636;29;20446;-71
2023/04/03 01:16:55;;;;;;;2.20;0.33;;;1.20;99.90;;;;;;4874886;29;20131;-72
2023/04/03 01:19:21;;;;;;;;;;;1.20;99.90;;;;;;4875966;29;20072;-71
2023/04/03 01:22:03;;;;;;;4.22;0.50;;;1.20;99.90;;;;;;4862153;29;19927;-71
2023/04/03 01:24:38;;;;;;;1.95;0.30;;;1.10;99.90;;;;;;4878549;29;20056;-71
2023/04/03 01:27:08;;;;;;;2.03;0.40;;;1.10;99.90;;;;;;4875135;29;20060;-71
2023/04/03 01:29:33;;;;;;;2.72;0.50;;;1.00;99.90;;;;;;4878036;29;20460;-72
2023/04/03 01:32:01;;;;;;;3.47;0.50;;;1.00;99.90;;;;;;4862932;29;20052;-71
2023/04/03 01:34:28;;;;;;;2.35;0.55;;;1.00;99.90;;;;;;4878405;29;20036;-71
2023/04/03 01:36:55;;;;;;;1.80;0.38;;;1.00;99.90;;;;;;4875455;29;20100;-72
2023/04/03 01:39:21;;;;;;;0.88;0.35;;;0.90;99.90;;;;;;4862093;29;20135;-71
2023/04/03 01:41:47;;;;;;;4.55;0.75;;;1.00;99.90;;;;;;4877744;29;20044;-71
2023/04/03 01:44:13;;;;;;;2.17;0.40;;;1.00;99.90;;;;;;4862648;29;20482;-72
2023/04/03 01:46:39;;;;;;;2.83;0.50;;;1.00;99.90;;;;;;4875788;29;20532;-71
2023/04/03 01:49:05;;;;;;;2.10;0.40;;;0.90;99.90;;;;;;4862575;29;20032;-71
2023/04/03 01:51:31;;;;;;;4.65;0.52;;;0.90;99.90;;;;;;4862059;29;20048;-71
2023/04/03 01:53:56;;;;;;;3.40;0.60;;;0.90;99.90;;;;;;4873749;29;20383;-71
2023/04/03 01:56:22;;;;;;;2.27;0.50;;;0.80;99.90;;;;;;4859904;29;20076;-72
2023/04/03 01:58:48;;;;;;;1.57;0.33;;;0.80;99.90;;;;;;4877899;29;20051;-71
2023/04/03 02:01:14;;;;;;;2.43;0.60;;;0.80;99.90;;;;;;4862347;29;20561;-71
2023/04/03 02:03:40;;;;;;;1.40;0.40;;;0.80;99.90;;;;;;4876281;29;20044;-71
2023/04/03 02:06:06;;;;;;;4.70;1.20;;;0.80;99.90;;;;;;4870826;29;20709;-71
2023/04/03 02:08:32;;;;;;;2.23;0.53;;;0.80;99.90;;;;;;4873787;29;20048;-71
2023/04/03 02:10:57;;;;;;;2.40;0.47;;;0.70;99.90;;;;;;4877725;29;20304;-71
2023/04/03 02:13:23;;;;;;;5.83;0.90;;;0.70;99.90;;;;;;4873057;29;20856;-71
2023/04/03 02:15:49;;;;;;;2.83;0.57;;;0.60;99.90;;;;;;4877279;29;20046;-71
2023/04/03 02:18:15;;;;;;;1.80;0.60;;;0.60;99.90;;;;;;4877961;29;20155;-71
2023/04/03 02:20:40;;;;;;;1.47;0.53;;;0.60;99.90;;;;;;4877644;29;20116;-71
2023/04/03 02:23:06;;;;;;;2.30;0.47;;;0.60;99.90;;;;;;4877610;29;20076;-71
2023/04/03 02:25:33;;;;;;;3.27;0.90;;;0.60;99.90;;;;;;4876252;29;20505;-71
2023/04/03 02:27:58;;;;;;;3.10;0.60;;;0.60;99.90;;;;;;4877679;29;20418;-72
2023/04/03 02:30:25;;;;;;;3.23;0.70;;;0.50;99.90;;;;;;4877645;29;20049;-71
2023/04/03 02:32:50;;;;;;;3.03;0.70;;;0.50;99.90;;;;;;4877447;29;20060;-71
2023/04/03 02:35:16;;;;;;;2.47;0.60;;;0.40;99.90;;;;;;4872422;29;20040;-71
2023/04/03 02:37:42;;;;;;;2.80;0.50;;;0.40;99.90;;;;;;4875105;29;20104;-71
2023/04/03 02:40:08;;;;;;;1.73;0.70;;;0.40;99.90;;;;;;4861921;29;20553;-71
2023/04/03 02:42:34;;;;;;;1.77;0.65;;;0.40;99.90;;;;;;4877766;29;20052;-71
2023/04/03 02:45:02;;;;;;;4.45;0.70;;;0.40;99.90;;;;;;4861062;29;20048;-71
2023/04/03 02:47:28;;;;;;;2.53;0.70;;;0.30;99.90;;;;;;4881059;29;20055;-71
2023/04/03 02:49:54;;;;;;;2.60;0.50;;;0.30;99.90;;;;;;4879147;29;20442;-71
2023/04/03 02:52:20;;;;;;;3.77;0.70;;;0.30;99.90;;;;;;4867111;29;20095;-71
2023/04/03 02:54:46;;;;;;;1.75;0.80;;;0.20;99.90;;;;;;4878499;29;20096;-71
2023/04/03 02:57:11;;;;;;;3.93;0.80;;;0.20;99.90;;;;;;4864579;29;20056;-71
2023/04/03 02:59:40;;;;;;;3.33;0.83;;;0.10;99.90;;;;;;4864996;29;20055;-71
2023/04/03 03:02:07;;;;;;;6.50;0.63;;;0.10;99.90;;;;;;4877009;29;20127;-72
2023/04/03 03:04:34;;;;;;;2.80;0.88;;;0.10;99.90;;;;;;4876519;29;20068;-71
2023/04/03 03:06:59;;;;;;;3.40;0.60;;;0.10;99.90;;;;;;4863794;29;20103;-71
2023/04/03 03:09:26;;;;;;;2.47;0.83;;;0.10;99.90;;;;;;4879902;29;20586;-71
2023/04/03 03:11:52;;;;;;;5.82;1.10;;;0.20;99.90;;;;;;4880619;29;20045;-72
2023/04/03 03:14:18;;;;;;;5.72;0.90;;;0.20;99.90;;;;;;4876643;29;20572;-71
2023/04/03 03:16:43;;;;;;;2.80;0.70;;;0.20;99.90;;;;;;4880371;29;20067;-71
2023/04/03 03:19:09;;;;;;;3.10;0.80;;;0.20;99.90;;;;;;4880167;29;20048;-71
2023/04/03 03:21:35;;;;;;;4.70;0.73;;;0.30;99.90;;;;;;4860489;29;20048;-71
2023/04/03 03:24:01;;;;;;;4.50;0.67;;;0.30;99.90;;;;;;4879989;29;20071;-71
2023/04/03 03:26:27;;;;;;;2.10;0.63;;;0.20;99.90;;;;;;4859278;29;20040;-71
2023/04/03 03:28:53;;;;;;;4.67;1.03;;;0.20;99.90;;;;;;4877305;29;20052;-71
2023/04/03 03:31:18;;;;;;;6.33;0.93;;;0.20;99.90;;;;;;4880103;29;20047;-71
2023/04/03 03:33:44;;;;;;;4.03;0.90;;;0.30;99.90;;;;;;4860881;29;20047;-71
2023/04/03 03:36:10;;;;;;;4.17;0.83;;;0.30;99.90;;;;;;4864851;29;20497;-71
2023/04/03 03:38:36;;;;;;;4.55;0.70;;;0.30;99.90;;;;;;4862819;29;20382;-71
2023/04/03 03:41:02;;;;;;;5.15;1.20;;;0.20;99.90;;;;;;4879662;29;20485;-71
2023/04/03 03:43:28;;;;;;;5.77;1.30;;;0.20;99.90;;;;;;4864338;29;20053;-71
2023/04/03 03:45:54;;;;;;;3.83;0.80;;;0.10;99.90;;;;;;4880295;29;20044;-71
2023/04/03 03:48:21;;;;;;;5.18;0.93;;;0.10;99.90;;;;;;4879637;29;20932;-71
2023/04/03 03:50:47;;;;;;;4.53;1.10;;;0.00;99.90;;;;;;4878324;29;20473;-71
2023/04/03 03:53:13;;;;;;;5.05;1.30;;;0.00;99.90;;;;;;4879963;29;20399;-71
2023/04/03 03:55:39;;;;;;;4.30;1.03;;;0.00;99.90;;;;;;4879988;29;20135;-71
2023/04/03 03:58:05;;;;;;;6.30;1.57;;;-0.10;99.90;;;;;;4864308;29;20067;-72
2023/04/03 04:00:30;;;;;;;2.87;0.83;;;-0.10;99.90;;;;;;4879222;29;20493;-71
2023/04/03 04:02:56;;;;;;;3.40;0.93;;;0.00;99.90;;;;;;4860821;29;20116;-71
2023/04/03 04:05:22;;;;;;;4.37;1.20;;;0.00;99.90;;;;;;4879191;29;20054;-71
2023/04/03 04:07:48;;;;;;;6.00;1.20;;;0.00;99.90;;;;;;4879492;29;20300;-71
2023/04/03 04:10:14;;;;;;;5.97;1.13;;;-0.10;99.90;;;;;;4879075;29;20127;-71
2023/04/03 04:12:40;;;;;;;6.70;0.90;;;-0.10;99.90;;;;;;4879476;29;20104;-71
2023/04/03 04:15:06;;;;;;;6.67;1.27;;;-0.10;99.90;;;;;;4876560;29;20041;-71
2023/04/03 04:17:32;;;;;;;3.08;0.82;;;-0.20;99.90;;;;;;4879933;29;20096;-71
2023/04/03 04:19:57;;;;;;;5.27;1.00;;;-0.20;99.90;;;;;;4879495;29;20029;-71
2023/04/03 04:22:23;;;;;;;4.23;1.17;;;-0.30;99.90;;;;;;4879160;29;20040;-71
2023/04/03 04:24:49;;;;;;;6.10;1.30;;;-0.20;99.90;;;;;;4880114;29;20066;-71
2023/04/03 04:27:15;;;;;;;6.00;1.40;;;-0.20;99.90;;;;;;4864295;29;20060;-71
2023/04/03 04:29:41;;;;;;;3.25;1.27;;;-0.30;99.90;;;;;;4876814;29;20052;-71
2023/04/03 04:32:08;;;;;;;5.73;1.40;;;-0.30;99.90;;;;;;4879067;29;20453;-71
2023/04/03 04:34:34;;;;;;;5.05;1.27;;;-0.40;99.90;;;;;;4879584;29;20093;-71
2023/04/03 04:37:00;;;;;;;5.90;1.30;;;-0.40;99.90;;;;;;4863904;29;20095;-75
2023/04/03 04:39:26;;;;;;;6.00;1.17;;;-0.50;99.90;;;;;;4878334;29;20561;-71
2023/04/03 04:41:51;;;;;;;3.33;1.17;;;-0.50;99.90;;;;;;4873554;29;20049;-71
2023/04/03 04:44:17;;;;;;;5.37;1.30;;;-0.60;99.90;;;;;;4879461;29;20137;-71
2023/04/03 04:46:43;;;;;;;6.27;1.30;;;-0.50;99.90;;;;;;4876291;29;20075;-71
2023/04/03 04:49:09;;;;;;;5.80;1.20;;;-0.50;99.90;;;;;;4861384;29;20060;-71
2023/04/03 04:51:34;;;;;;;3.37;1.40;;;-0.60;99.90;;;;;;4858933;29;20141;-71
2023/04/03 04:54:00;;;;;;;3.10;1.00;;;-0.60;99.90;;;;;;4874530;29;20116;-71
2023/04/03 04:56:26;;;;;;;6.17;1.10;;;-0.60;99.90;;;;;;4874128;29;20533;-71
2023/04/03 04:58:52;;;;;;;5.13;1.40;;;-0.60;99.90;;;;;;4860226;29;20128;-71
2023/04/03 05:01:18;;;;;;;5.57;1.30;;;-0.60;99.90;;;;;;4876049;29;20055;-71
2023/04/03 05:03:44;;;;;;;4.85;1.80;;;-0.50;99.90;;;;;;4877927;29;20350;-71
2023/04/03 05:06:10;;;;;;;4.30;1.98;;;-0.50;99.90;;;;;;4877968;29;20048;-71
2023/04/03 05:08:35;;;;;;;6.13;1.43;;;-0.50;99.90;;;;;;4862355;29;20052;-72
2023/04/03 05:11:01;;;;;;;4.67;1.40;;;-0.50;99.90;;;;;;4860554;29;20535;-71
2023/04/03 05:13:27;;;;;;;8.53;1.80;;;-0.50;99.90;;;;;;4875171;29;20033;-71
2023/04/03 05:15:52;;;;;;;8.47;1.50;;;-0.60;99.90;;;;;;4871721;29;20060;-71
2023/04/03 05:18:18;;;;;;;5.17;2.00;;;-0.60;99.90;;;;;;4867299;29;20533;-71
2023/04/03 05:20:44;;;;;;;6.60;1.83;;;-0.60;99.90;;;;;;4862555;29;20589;-71
2023/04/03 05:23:11;;;;;;;5.50;1.60;;;-0.60;99.90;;;;;;4875511;29;20048;-71
2023/04/03 05:25:40;;;;;;;7.97;1.60;;;-0.60;99.90;;;;;;4860705;29;20454;-71
2023/04/03 05:28:06;;;;;;;5.57;1.70;;;-0.60;99.90;;;;;;4860182;29;20048;-71
2023/04/03 05:30:32;;;;;;;6.03;1.67;;;-0.60;99.90;;;;;;4878064;29;20041;-71
2023/04/03 05:32:59;;;;;;;6.17;1.63;;;-0.60;99.90;;;;;;4862657;29;20059;-71
2023/04/03 05:35:24;;;;;;;5.88;1.52;;;-0.60;99.90;;;;;;4877370;29;20045;-71
2023/04/03 05:37:50;;;;;;;9.73;1.90;;;-0.60;99.90;;;;;;4874238;29;20059;-71
2023/04/03 05:40:16;;;;;;;5.63;2.07;;;-0.60;99.90;;;;;;4875301;29;20044;-71
2023/04/03 05:42:42;;;;;;;5.53;1.50;;;-0.60;99.90;;;;;;4876654;29;20088;-71
2023/04/03 05:45:08;;;;;;;6.60;1.83;;;-0.60;99.90;;;;;;4876490;29;20285;-72
2023/04/03 05:47:34;;;;;;;7.03;2.03;;;-0.60;99.90;;;;;;4874720;29;20056;-71
2023/04/03 05:49:59;;;;;;;3.90;1.50;;;-0.60;99.90;;;;;;4875404;29;20348;-71
2023/04/03 05:52:35;;;;;;;7.63;1.70;;;-0.60;99.90;;;;;;4876558;29;20513;-71
2023/04/03 05:55:01;;;;;;;5.97;2.20;;;-0.60;99.90;;;;;;4875710;29;20080;-71
2023/04/03 05:57:27;;;;;;;7.20;1.63;;;-0.50;99.90;;;;;;4876071;29;20037;-71
2023/04/03 05:59:52;;;;;;;5.17;1.80;;;-0.50;99.90;;;;;;4877170;29;20100;-71
2023/04/03 06:02:21;;;;;;;6.97;2.00;;;-0.50;99.90;;;;;;4876684;29;20085;-71
2023/04/03 06:04:48;;;;;;;11.07;2.28;;;-0.50;99.90;;;;;;4876003;29;20049;-71
2023/04/03 06:07:22;;;;;;;6.75;2.22;;;-0.50;99.90;;;;;;4875991;29;20399;-71
2023/04/03 06:09:49;;;;;;;6.90;1.80;;;-0.40;99.90;;;;;;4859400;29;20132;-71
2023/04/03 06:12:15;;;;;;;8.23;1.52;;;-0.40;99.90;;;;;;4859272;29;20060;-71
2023/04/03 06:14:41;;;;;;;5.78;1.75;;;-0.30;99.90;;;;;;4860974;29;20053;-71
2023/04/03 06:17:08;;;;;;;7.27;1.53;;;-0.30;99.90;;;;;;4876380;29;20409;-71
2023/04/03 06:19:34;;;;;;;6.00;2.28;;;-0.20;99.90;;;;;;4867331;29;20036;-71
2023/04/03 06:22:00;;;;;;;5.82;1.77;;;-0.10;99.90;;;;;;4863071;29;20184;-71
2023/04/03 06:24:26;;;;;;;4.57;1.80;;;-0.10;99.90;;;;;;4879484;29;20131;-71
2023/04/03 06:26:52;;;;;;;6.30;1.48;;;0.00;99.90;;;;;;4864013;29;20044;-72
2023/04/03 06:29:19;;;;;;;5.80;1.42;;;0.10;99.90;;;;;;4879210;29;20052;-71
2023/04/03 06:31:46;;;;;;;5.95;1.77;;;0.10;99.90;;;;;;4864764;29;20055;-71
2023/04/03 06:34:12;;;;;;;6.57;1.83;;;0.20;99.90;;;;;;4879540;29;20116;-71
2023/04/03 06:36:38;;;;;;;7.85;2.35;;;0.20;99.90;;;;;;4879403;29;20560;-71
2023/04/03 06:39:04;;;;;;;6.10;1.60;;;0.30;99.90;;;;;;4861412;29;20290;-72
2023/04/03 06:41:30;;;;;;;7.57;1.40;;;0.40;99.90;;;;;;4880074;29;20040;-72
2023/04/03 06:43:57;;;;;;;4.50;1.70;;;0.50;99.90;;;;;;4873474;29;20054;-71
2023/04/03 06:46:25;;;;;;;5.80;1.70;;;0.60;99.90;;;;;;4879721;29;20494;-72
2023/04/03 06:48:51;;;;;;;6.88;1.55;;;0.70;99.90;;;;;;4863368;29;20206;-72
2023/04/03 06:51:24;;;;;;;7.07;1.88;;;0.80;99.90;;;;;;4876446;29;20055;-72
2023/04/03 06:53:51;;;;;;;5.70;1.70;;;0.90;99.90;;;;;;4877821;29;20044;-72
2023/04/03 06:56:17;;;;;;;9.50;1.67;;;1.00;99.90;;;;;;4873792;29;20119;-72
2023/04/03 06:58:43;;;;;;;5.18;1.45;;;1.00;99.90;;;;;;4880169;29;20128;-72
2023/04/03 07:01:11;;;;;;;7.18;1.63;;;1.10;99.90;;;;;;4873335;29;20064;-72
2023/04/03 07:03:38;;;;;;;6.13;1.75;;;1.20;99.90;;;;;;4879409;29;20044;-72
2023/04/03 07:06:06;;;;;;;9.98;1.60;;;1.30;99.90;;;;;;4859659;29;20412;-72
2023/04/03 07:08:33;;;;;;;4.47;1.50;;;1.40;99.90;;;;;;4878726;29;20086;-72
2023/04/03 07:10:59;;;;;;;6.47;1.75;;;1.50;99.90;;;;;;4859575;29;20052;-72
2023/04/03 07:13:27;;;;;;;9.35;1.50;;;1.60;99.90;;;;;;4863856;29;20120;-72
2023/04/03 07:15:53;;;;;;;7.45;1.55;;;1.70;99.90;;;;;;4879920;29;20112;-72
2023/04/03 07:18:19;;;;;;;5.70;1.40;;;1.80;99.90;;;;;;4879691;29;20045;-72
2023/04/03 07:20:45;;;;;;;5.82;1.35;;;1.90;99.90;;;;;;4879859;29;20055;-72
2023/04/03 07:23:11;;;;;;;6.03;1.67;;;2.00;99.90;;;;;;4877833;29;20052;-72
2023/04/03 07:25:41;;;;;;;7.68;1.60;;;2.10;99.90;;;;;;4863844;29;20037;-72
2023/04/03 07:28:08;;;;;;;5.35;1.50;;;2.10;99.90;;;;;;4864114;29;20048;-72
2023/04/03 07:30:33;;;;;;;5.05;1.48;;;2.20;99.90;;;;;;4876612;29;20041;-71
2023/04/03 07:32:59;;;;;;;4.57;1.47;;;2.30;99.90;;;;;;4879087;29;20454;-71
2023/04/03 07:35:25;;;;;;;6.63;1.93;;;2.40;99.90;;;;;;4879496;29;20044;-71
2023/04/03 07:37:51;;;;;;;7.23;1.87;;;2.50;99.90;;;;;;4879276;29;20470;-71
2023/04/03 07:40:16;;;;;;;6.67;1.53;;;2.60;99.90;;;;;;4862975;29;20677;-71
2023/04/03 07:42:42;;;;;;;7.70;1.67;;;2.60;99.90;;;;;;4877928;29;20476;-71
2023/04/03 07:45:09;;;;;;;6.27;1.17;;;2.70;99.90;;;;;;4875925;29;20110;-71
2023/04/03 07:47:34;;;;;;;7.20;1.80;;;2.80;99.90;;;;;;4879429;29;20057;-71
2023/04/03 07:50:00;;;;;;;4.03;1.50;;;2.90;99.90;;;;;;4879537;29;20056;-71
2023/04/03 07:52:26;;;;;;;3.80;1.57;;;3.00;99.90;;;;;;4863623;29;20040;-71
2023/04/03 07:54:52;;;;;;;4.27;1.53;;;3.10;99.90;;;;;;4852756;29;20386;-71
2023/04/03 07:57:17;;;;;;;3.10;1.07;;;3.20;99.90;;;;;;4863597;29;20494;-71
2023/04/03 07:59:43;;;;;;;3.37;1.20;;;3.30;99.90;;;;;;4863842;29;20099;-71
2023/04/03 08:02:12;;;;;;;3.30;1.40;;;3.50;99.90;;;;;;4872417;29;20048;-71
2023/04/03 08:04:38;;;;;;;6.75;1.48;;;3.60;99.90;;;;;;4873070;29;20057;-71
2023/04/03 08:07:04;;;;;;;2.90;1.33;;;3.70;99.90;;;;;;4878816;29;20056;-71
2023/04/03 08:09:31;;;;;;;6.57;1.40;;;3.70;99.90;;;;;;4878659;29;20064;-72
2023/04/03 08:11:57;;;;;;;3.78;1.67;;;3.80;99.90;;;;;;4861627;29;20533;-72
2023/04/03 08:14:23;;;;;;;4.57;1.25;;;3.90;99.90;;;;;;4860608;29;20716;-72
2023/04/03 08:16:49;;;;;;;4.23;1.50;;;4.00;99.90;;;;;;4876426;29;20047;-71
2023/04/03 08:19:17;;;;;;;5.03;1.33;;;4.10;99.90;;;;;;4860731;29;20138;-71
2023/04/03 08:21:45;;;;;;;3.88;1.08;;;4.10;99.90;;;;;;4860131;29;20067;-71
2023/04/03 08:24:11;;;;;;;3.25;1.15;;;4.20;99.90;;;;;;4860388;29;20056;-71
2023/04/03 08:26:37;;;;;;;5.55;1.30;;;4.30;99.90;;;;;;4878537;29;20465;-71
2023/04/03 08:29:03;;;;;;;5.83;1.60;;;4.40;99.90;;;;;;4857940;29;20040;-72
2023/04/03 08:31:29;;;;;;;5.10;1.20;;;4.60;99.90;;;;;;4861406;29;20048;-72
2023/04/03 08:33:56;;;;;;;6.60;2.07;;;4.70;99.90;;;;;;4878623;29;20048;-72
2023/04/03 08:36:25;;;;;;;3.75;1.38;;;4.80;99.90;;;;;;4878385;29;20513;-72
2023/04/03 08:38:52;;;;;;;6.97;1.08;;;4.90;99.90;;;;;;4878597;29;20053;-72
2023/04/03 08:41:39;;;;;;;2.45;1.10;;;5.00;99.90;;;;;;4878306;29;20131;-72
2023/04/03 08:44:24;;;;;;;3.20;0.90;;;5.10;99.90;;;;;;4862014;29;20140;-72
2023/04/03 08:47:11;;;;;;;4.05;1.35;;;5.10;98.00;;;;;;4876738;29;20064;-72
2023/04/03 08:49:51;;;;;;;2.88;0.80;;;5.20;99.90;;;;;;4862265;29;20092;-72
2023/04/03 08:52:25;;;;;;;3.42;0.70;;;5.30;99.90;;;;;;4851873;29;20040;-72
2023/04/03 08:54:55;;;;;;;4.90;1.05;;;5.40;92.80;;;;;;4871982;29;20076;-72
2023/04/03 08:57:44;;;;;;;2.92;1.15;;;5.50;91.90;;;;;;4876331;29;20044;-72
2023/04/03 09:00:23;;;;;;;3.97;0.80;;;5.60;88.50;;;;;;4877826;29;20044;-72
2023/04/03 09:02:52;;;;;;;3.78;0.82;;;5.60;90.40;;;;;;4857545;29;20260;-72
2023/04/03 09:05:32;;;;;;;2.03;0.98;;;5.70;92.50;;;;;;4878167;29;20557;-72
2023/04/03 09:08:05;;;;;;;3.40;0.80;;;5.70;90.60;;;;;;4855604;29;20152;-72
2023/04/03 09:10:36;;;;;;;4.45;0.70;;;5.80;89.80;;;;;;4877958;29;20252;-72
2023/04/03 09:13:08;;;;;;;2.65;0.98;;;5.90;89.80;;;;;;4878028;29;20374;-72
2023/04/03 09:15:34;;;;;;;3.22;0.90;;;6.00;87.90;;;;;;4877697;29;20045;-72
2023/04/03 09:18:23;;;;;;;1.50;0.70;;;6.00;86.20;;;;;;4861904;29;20033;-72
2023/04/03 09:21:20;;;;;;;1.63;0.50;;;6.10;69.30;;;;;;4874370;29;20685;-72
2023/04/03 09:23:52;;;;;;;5.15;0.85;;;6.20;66.20;;;;;;4871712;29;20049;-72
2023/04/03 09:26:20;;;;;;;4.00;0.70;;;6.30;67.10;;;;;;4863234;29;20052;-72
2023/04/03 09:28:46;;;;;;;4.40;0.70;;;6.40;69.50;;;;;;4862233;29;20044;-73
2023/04/03 09:31:19;;;;;;;6.30;0.90;;;6.60;70.40;;;;;;4862204;29;20111;-73
2023/04/03 09:33:46;;;;;;;2.92;0.80;;;6.70;65.30;;;;;;4872266;29;20053;-73
2023/04/03 09:36:12;;;;;;;3.50;0.63;;;6.70;65.60;;;;;;4860900;29;20044;-72
2023/04/03 09:38:38;;;;;;;2.78;0.73;;;6.80;65.70;;;;;;4853460;29;20048;-72
2023/04/03 09:41:22;;;;;;;2.13;0.60;;;6.80;65.40;;;;;;4862094;29;20049;-73
2023/04/03 09:43:54;;;;;;;4.55;0.80;;;6.90;65.90;;;;;;4878127;29;20394;-73
2023/04/03 09:46:31;;;;;;;2.15;0.80;;;7.00;63.80;;;;;;4878008;29;20405;-74
2023/04/03 09:49:00;;;;;;;3.90;0.70;;;7.10;61.80;;;;;;4871976;29;20045;-73
2023/04/03 09:51:28;;;;;;;2.55;0.95;;;7.20;61.20;;;;;;4872594;29;20041;-73
2023/04/03 09:53:55;;;;;;;1.40;0.40;;;7.20;63.10;;;;;;4861985;29;20041;-73
2023/04/03 09:56:27;;;;;;;3.03;0.55;;;7.30;61.00;;;;;;4877503;29;20047;-73
2023/04/03 09:58:59;;;;;;;1.83;0.60;;;7.40;63.00;;;;;;4862335;29;20518;-73
2023/04/03 10:01:32;;;;;;;1.52;0.40;;;7.50;58.00;;;;;;4871113;29;20049;-74
2023/04/03 10:04:12;;;;;;;4.43;0.90;;;7.60;54.40;;;;;;4874457;29;20064;-73
2023/04/03 10:06:48;;;;;;;1.88;0.40;;;7.70;54.80;;;;;;4860909;29;20051;-73
2023/04/03 10:09:31;;;;;;;1.65;0.60;;;7.70;53.50;;;;;;4856462;29;20101;-73
2023/04/03 10:12:05;;;;;;;1.83;0.35;;;7.80;54.40;;;;;;4877955;29;20037;-72
2023/04/03 10:14:33;;;;;;;2.85;0.73;;;7.80;55.10;;;;;;4877707;29;20036;-72
2023/04/03 10:17:03;;;;;;;2.65;0.52;;;7.90;53.10;;;;;;4859071;29;20053;-73
2023/04/03 10:20:01;;;;;;;2.15;0.40;;;7.90;53.80;;;;;;4861035;29;20044;-73
2023/04/03 10:22:35;;;;;;;2.60;0.50;;;7.90;51.00;;;;;;4862337;29;20087;-73
2023/04/03 10:25:13;;;;;;;2.67;0.60;;;8.00;53.60;;;;;;4876142;29;20041;-73
2023/04/03 10:28:07;;;;;;;10.07;1.92;;;8.10;51.70;;;;;;4859340;29;20040;-73
2023/04/03 10:30:43;;;;;;;3.45;0.70;;;8.20;48.30;;;;;;4859518;29;20183;-73
2023/04/03 10:33:17;;;;;;;2.47;0.55;;;8.10;50.80;;;;;;4879455;29;20133;-73
2023/04/03 10:36:29;;;;;;;6.70;0.82;;;8.20;51.10;;;;;;4862800;29;20044;-73
2023/04/03 10:39:26;;;;;;;2.38;0.50;;;8.20;49.70;;;;;;4859977;29;20119;-73
2023/04/03 10:42:00;;;;;;;2.97;0.68;;;8.40;48.20;;;;;;4876799;29;20056;-73
2023/04/03 10:44:56;;;;;;;3.33;0.60;;;8.40;50.30;;;;;;4861518;29;20040;-73
2023/04/03 10:47:28;;;;;;;2.15;0.63;;;8.50;49.50;;;;;;4871785;29;20056;-73
2023/04/03 10:50:26;;;;;;;4.22;0.63;;;8.50;51.40;;;;;;4861850;29;20108;-73
2023/04/03 10:53:28;;;;;;;2.35;0.60;;;8.70;48.50;;;;;;4877449;29;20532;-73
2023/04/03 10:56:17;;;;;;;3.00;0.43;;;8.70;48.00;;;;;;4798228;29;20502;-73
2023/04/03 10:58:54;;;;;;;2.50;0.40;;;8.70;48.10;;;;;;4870231;29;20048;-73
2023/04/03 11:01:28;;;;;;;2.22;0.43;;;8.70;49.30;;;;;;4861911;29;20048;-73
2023/04/03 11:03:58;;;;;;;1.98;0.40;;;8.70;47.50;;;;;;4876077;29;20056;-73
2023/04/03 11:06:31;;;;;;;3.08;0.60;;;8.80;47.30;;;;;;4860920;29;20044;-73
2023/04/03 11:09:00;;;;;;;3.35;0.50;;;8.80;45.40;;;;;;4880283;29;20065;-73
2023/04/03 11:11:36;;;;;;;1.27;0.50;;;8.80;45.90;;;;;;4873945;29;20110;-73
2023/04/03 11:14:31;;;;;;;1.73;0.40;;;8.80;46.50;;;;;;4881062;29;20117;-73
2023/04/03 11:17:18;;;;;;;2.28;0.40;;;8.90;48.00;;;;;;4864961;29;20449;-73
2023/04/03 11:20:00;;;;;;;3.95;0.77;;;9.00;47.90;;;;;;4865427;29;20052;-73
2023/04/03 11:22:41;;;;;;;1.55;0.40;;;9.10;46.60;;;;;;4875879;29;20071;-73
2023/04/03 11:25:21;;;;;;;3.83;0.40;;;9.10;46.10;;;;;;4880715;29;20530;-73
2023/04/03 11:28:12;;;;;;;1.92;0.43;;;9.40;45.10;;;;;;4864532;29;20041;-73
2023/04/03 11:31:00;;;;;;;2.13;0.50;;;9.40;46.60;;;;;;4859239;29;20064;-73
2023/04/03 11:33:40;;;;;;;2.97;0.57;;;9.50;46.30;;;;;;4865295;29;20032;-73
2023/04/03 11:36:18;;;;;;;2.63;0.40;;;9.60;45.90;;;;;;4857063;29;20044;-74
2023/04/03 11:38:47;;;;;;;2.50;0.75;;;9.60;43.60;;;;;;4861046;29;20052;-73
2023/04/03 11:41:13;;;;;;;2.03;0.30;;;9.60;42.10;;;;;;4863963;29;20585;-73
2023/04/03 11:44:00;;;;;;;1.05;0.35;;;9.40;41.80;;;;;;4871068;29;20048;-73
2023/04/03 11:46:55;;;;;;;1.30;0.20;;;9.30;42.90;;;;;;4864726;29;20051;-73
2023/04/03 11:49:51;;;;;;;1.13;0.30;;;9.40;42.10;;;;;;4863890;29;20049;-73
2023/04/03 11:52:42;;;;;;;1.67;0.20;;;9.50;41.00;;;;;;4877946;29;20113;-73
2023/04/03 11:55:23;;;;;;;1.92;0.43;;;9.50;40.00;;;;;;4862617;29;20091;-74
2023/04/03 11:57:58;;;;;;;1.60;0.45;;;9.40;41.70;;;;;;4864190;29;20651;-74
2023/04/03 12:00:43;;;;;;;2.53;0.32;;;9.40;40.60;;;;;;4878570;29;20048;-74
2023/04/03 12:03:27;;;;;;;3.00;0.73;;;9.40;40.20;;;;;;4861199;29;20041;-74
2023/04/03 12:05:57;;;;;;;3.80;0.40;;;9.40;39.70;;;;;;4879759;29;20056;-74
2023/04/03 12:08:26;;;;;;;4.00;0.60;;;9.40;40.40;;;;;;4864036;29;20068;-74
2023/04/03 12:11:10;;;;;;;1.27;0.40;;;9.40;40.80;;;;;;4863967;29;20628;-74
2023/04/03 12:13:49;;;;;;;2.95;0.40;;;9.40;41.00;;;;;;4879880;29;20052;-74
2023/04/03 12:16:23;;;;;;;3.40;0.45;;;9.50;39.60;;;;;;4880238;29;20032;-74
2023/04/03 12:18:55;;;;;;;1.60;0.50;;;9.40;39.30;;;;;;4878635;29;20395;-74
2023/04/03 12:21:22;;;;;;;3.75;0.63;;;9.40;39.70;;;;;;4856906;29;20051;-74
2023/04/03 12:24:08;;;;;;;3.70;0.90;;;9.40;40.70;;;;;;4880018;29;20053;-73
2023/04/03 12:26:50;;;;;;;;;;;9.40;40.20;;;;;;4881363;29;20040;-73
2023/04/03 12:29:32;;;;;;;1.27;0.38;;;9.40;38.90;;;;;;4880536;29;19924;-73
2023/04/03 12:32:13;;;;;;;1.92;0.40;;;9.50;40.50;;;;;;4880341;29;20044;-73
2023/04/03 12:34:41;;;;;;;1.60;0.28;;;9.50;41.30;;;;;;4880768;29;20389;-74
2023/04/03 12:37:43;;;;;;;2.28;0.40;;;9.70;42.30;;;;;;4865654;29;20143;-75
2023/04/03 12:40:31;;;;;;;1.00;0.30;;;9.80;39.60;;;;;;4865824;29;20131;-74
2023/04/03 12:43:23;;;;;;;1.58;0.30;;;9.80;40.80;;;;;;4880264;29;20193;-74
2023/04/03 12:46:11;;;;;;;1.73;0.47;;;9.80;40.90;;;;;;4830034;29;20087;-74
2023/04/03 12:48:59;;;;;;;2.25;0.40;;;9.90;41.20;;;;;;4863583;29;20059;-74
2023/04/03 12:51:42;;;;;;;2.08;0.70;;;9.90;42.60;;;;;;4863693;29;20041;-74
2023/04/03 12:54:21;;;;;;;2.00;0.30;;;10.00;42.40;;;;;;4874822;29;20520;-74
2023/04/03 12:56:46;;;;;;;2.22;0.60;;;10.10;42.30;;;;;;4864614;29;20123;-73
2023/04/03 12:59:24;;;;;;;1.93;0.53;;;10.10;41.90;;;;;;4879733;29;20127;-73
2023/04/03 13:01:58;;;;;;;3.83;0.50;;;10.10;40.10;;;;;;4857936;29;20560;-74
2023/04/03 13:04:25;;;;;;;3.00;0.50;;;10.00;40.60;;;;;;4872937;29;20116;-74
2023/04/03 13:06:51;;;;;;;2.05;0.30;;;10.00;41.70;;;;;;4864188;29;20112;-74
2023/04/03 13:09:27;;;;;;;2.65;0.50;;;10.00;41.70;;;;;;4885600;29;20056;-73
2023/04/03 13:11:57;;;;;;;1.65;0.35;;;10.10;41.00;;;;;;4879962;29;20112;-73